createdAt,value
2023-04-08T00:00:54.791Z,16.45
2023-04-08T00:03:21.682Z,20.90
2023-04-08T00:05:48.471Z,18.40
2023-04-08T00:08:14.896Z,31.35
2023-04-08T00:10:41.436Z,19.27
2023-04-08T00:13:07.833Z,23.40
2023-04-08T00:15:34.346Z,25.58
2023-04-08T00:18:01.041Z,26.83
2023-04-08T00:20:27.692Z,21.38
2023-04-08T00:22:54.225Z,18.75
2023-04-08T00:25:21.909Z,35.40
2023-04-08T00:27:49.958Z,29.63
2023-04-08T00:30:16.580Z,33.63
2023-04-08T00:32:43.675Z,33.78
2023-04-08T00:35:10.573Z,25.90
2023-04-08T00:37:37.138Z,35.40
2023-04-08T00:40:04.305Z,21.55
2023-04-08T00:42:30.893Z,16.75
2023-04-08T00:44:57.389Z,23.65
2023-04-08T00:47:24.179Z,24.73
2023-04-08T00:49:51.034Z,23.70
2023-04-08T00:52:17.545Z,27.08
2023-04-08T00:54:43.936Z,22.85
2023-04-08T00:57:10.490Z,34.33
2023-04-08T00:59:37.129Z,19.33
2023-04-08T01:02:22.300Z,24.88
2023-04-08T01:04:59.405Z,23.65
2023-04-08T01:10:11.029Z,30.17
2023-04-08T01:12:41.756Z,32.92
2023-04-08T01:17:37.332Z,23.95
2023-04-08T01:20:05.688Z,28.73
2023-04-08T01:22:43.898Z,27.23
2023-04-08T01:25:23.756Z,26.30
2023-04-08T01:27:50.946Z,24.02
2023-04-08T01:30:20.756Z,24.65
2023-04-08T01:32:47.733Z,25.88
2023-04-08T01:35:16.425Z,38.40
2023-04-08T01:37:44.562Z,32.78
2023-04-08T01:40:11.717Z,32.47
2023-04-08T01:42:38.777Z,25.90
2023-04-08T01:45:06.280Z,35.67
2023-04-08T01:47:34.306Z,26.58
2023-04-08T01:50:01.687Z,34.90
2023-04-08T01:52:30.310Z,29.05
2023-04-08T01:54:56.901Z,35.08
2023-04-08T01:57:27.167Z,22.00
2023-04-08T01:59:59.717Z,29.42
2023-04-08T02:02:27.359Z,26.90
2023-04-08T02:04:54.962Z,25.65
2023-04-08T02:07:21.613Z,24.35
2023-04-08T02:09:48.078Z,26.98
2023-04-08T02:12:14.542Z,31.58
2023-04-08T02:14:41.191Z,30.05
2023-04-08T02:17:13.978Z,21.15
2023-04-08T02:20:03.419Z,25.42
2023-04-08T02:25:13.009Z,19.48
2023-04-08T02:27:41.470Z,28.00
2023-04-08T02:30:10.908Z,30.25
2023-04-08T02:32:38.864Z,32.53
2023-04-08T02:35:06.559Z,23.77
2023-04-08T02:37:33.100Z,34.58
2023-04-08T02:39:59.703Z,29.15
2023-04-08T02:42:26.421Z,25.08
2023-04-08T02:44:52.904Z,27.20
2023-04-08T02:47:19.365Z,24.98
2023-04-08T02:49:45.937Z,22.40
2023-04-08T02:52:12.386Z,27.65
2023-04-08T02:54:38.807Z,34.60
2023-04-08T02:57:05.381Z,31.52
2023-04-08T02:59:31.885Z,28.40
2023-04-08T03:01:58.373Z,20.17
2023-04-08T03:04:24.846Z,23.40
2023-04-08T03:06:51.248Z,30.52
2023-04-08T03:09:17.641Z,30.08
2023-04-08T03:11:44.812Z,22.73
2023-04-08T03:14:11.322Z,22.00
2023-04-08T03:16:37.794Z,32.22
2023-04-08T03:19:04.300Z,24.40
2023-04-08T03:21:31.820Z,29.75
2023-04-08T03:23:58.238Z,24.90
2023-04-08T03:26:24.825Z,19.75
2023-04-08T03:28:52.863Z,31.45
2023-04-08T03:31:21.289Z,19.05
2023-04-08T03:33:47.870Z,31.83
2023-04-08T03:36:14.342Z,26.80
2023-04-08T03:38:40.738Z,24.20
2023-04-08T03:41:07.183Z,21.92
2023-04-08T03:43:34.430Z,29.80
2023-04-08T03:46:02.091Z,24.05
2023-04-08T03:48:28.538Z,23.95
2023-04-08T03:50:54.947Z,17.23
2023-04-08T03:53:21.373Z,28.45
2023-04-08T03:55:50.587Z,26.35
2023-04-08T03:58:17.034Z,26.58
2023-04-08T04:00:43.411Z,20.70
2023-04-08T04:03:13.103Z,21.00
2023-04-08T04:05:39.908Z,24.52
2023-04-08T04:08:06.742Z,25.98
2023-04-08T04:10:33.149Z,35.33
2023-04-08T04:12:59.562Z,29.08
2023-04-08T04:15:26.107Z,41.78
2023-04-08T04:17:52.547Z,22.38
2023-04-08T04:20:19.180Z,22.42
2023-04-08T04:22:45.775Z,19.90
2023-04-08T04:25:12.235Z,39.72
2023-04-08T04:27:38.701Z,30.08
2023-04-08T04:30:05.964Z,29.45
2023-04-08T04:32:32.503Z,26.20
2023-04-08T04:35:01.870Z,46.50
2023-04-08T04:37:28.265Z,35.00
2023-04-08T04:39:54.670Z,36.35
2023-04-08T04:42:21.082Z,45.33
2023-04-08T04:44:47.740Z,35.88
2023-04-08T04:47:14.298Z,35.60
2023-04-08T04:49:40.705Z,30.00
2023-04-08T04:52:07.499Z,38.40
2023-04-08T04:54:33.915Z,41.10
2023-04-08T04:57:01.024Z,37.95
2023-04-08T04:59:27.571Z,38.05
2023-04-08T05:01:54.156Z,40.90
2023-04-08T05:04:20.665Z,32.63
2023-04-08T05:06:47.125Z,33.47
2023-04-08T05:09:13.540Z,63.80
2023-04-08T05:11:39.947Z,46.67
2023-04-08T05:14:07.170Z,35.90
2023-04-08T05:16:34.396Z,45.78
2023-04-08T05:19:00.977Z,46.40
2023-04-08T05:21:27.645Z,82.13
2023-04-08T05:23:54.322Z,47.70
2023-04-08T05:26:21.772Z,53.10
2023-04-08T05:28:49.190Z,63.13
2023-04-08T05:31:16.610Z,47.75
2023-04-08T05:33:43.177Z,38.60
2023-04-08T05:36:11.287Z,39.40
2023-04-08T05:38:38.221Z,38.08
2023-04-08T05:41:04.706Z,39.05
2023-04-08T05:43:33.284Z,45.72
2023-04-08T05:45:59.825Z,39.63
2023-04-08T05:48:26.293Z,42.70
2023-04-08T05:50:52.726Z,48.78
2023-04-08T05:53:19.138Z,53.75
2023-04-08T05:55:45.705Z,56.08
2023-04-08T05:58:12.122Z,41.40
2023-04-08T06:00:38.485Z,49.28
2023-04-08T06:03:05.086Z,44.35
2023-04-08T06:05:31.754Z,44.05
2023-04-08T06:07:58.199Z,39.53
2023-04-08T06:10:24.619Z,43.55
2023-04-08T06:12:51.182Z,36.65
2023-04-08T06:15:17.700Z,34.90
2023-04-08T06:17:44.289Z,35.03
2023-04-08T06:20:10.967Z,50.50
2023-04-08T06:22:38.076Z,41.03
2023-04-08T06:25:05.264Z,48.90
2023-04-08T06:27:31.725Z,51.75
2023-04-08T06:29:58.156Z,43.92
2023-04-08T06:32:24.680Z,60.08
2023-04-08T06:34:51.299Z,39.08
2023-04-08T06:37:17.735Z,40.40
2023-04-08T06:39:44.437Z,36.72
2023-04-08T06:42:10.928Z,51.58
2023-04-08T06:44:37.344Z,52.55
2023-04-08T06:47:03.753Z,42.90
2023-04-08T06:49:30.180Z,38.35
2023-04-08T06:51:56.629Z,35.05
2023-04-08T06:54:22.996Z,45.25
2023-04-08T06:56:49.437Z,46.38
2023-04-08T06:59:15.860Z,36.78
2023-04-08T07:01:42.281Z,39.13
2023-04-08T07:04:08.805Z,47.58
2023-04-08T07:06:35.250Z,47.95
2023-04-08T07:09:01.714Z,41.20
2023-04-08T07:11:28.160Z,39.10
2023-04-08T07:13:54.590Z,40.42
2023-04-08T07:16:21.082Z,51.17
2023-04-08T07:18:47.610Z,46.13
2023-04-08T07:21:14.213Z,44.20
2023-04-08T07:23:40.863Z,49.80
2023-04-08T07:26:07.638Z,47.13
2023-04-08T07:28:34.080Z,56.53
2023-04-08T07:31:17.385Z,55.20
2023-04-08T07:33:45.330Z,59.28
2023-04-08T07:36:13.096Z,44.97
2023-04-08T07:38:40.119Z,49.90
2023-04-08T07:41:06.934Z,60.95
2023-04-08T07:43:37.440Z,65.57
2023-04-08T07:46:05.194Z,63.92
2023-04-08T07:48:32.660Z,70.15
2023-04-08T07:51:10.984Z,65.93
2023-04-08T07:53:39.031Z,55.17
2023-04-08T07:56:11.461Z,55.38
2023-04-08T07:58:38.044Z,57.78
2023-04-08T08:01:04.613Z,60.63
2023-04-08T08:03:33.742Z,52.83
2023-04-08T08:06:00.684Z,68.78
2023-04-08T08:08:27.043Z,62.92
2023-04-08T08:10:53.511Z,61.85
2023-04-08T08:13:22.080Z,52.88
2023-04-08T08:15:53.594Z,65.55
2023-04-08T08:18:20.448Z,52.13
2023-04-08T08:20:46.921Z,65.97
2023-04-08T08:23:13.334Z,50.55
2023-04-08T08:25:39.774Z,53.40
2023-04-08T08:28:06.399Z,63.97
2023-04-08T08:30:34.039Z,66.60
2023-04-08T08:33:01.026Z,59.22
2023-04-08T08:35:27.523Z,70.22
2023-04-08T08:37:53.931Z,61.40
2023-04-08T08:40:20.465Z,54.38
2023-04-08T08:42:52.309Z,72.28
2023-04-08T08:45:20.442Z,63.70
2023-04-08T08:47:48.511Z,65.70
2023-04-08T08:50:17.000Z,68.65
2023-04-08T08:52:51.962Z,53.42
2023-04-08T08:55:39.375Z,57.75
2023-04-08T08:58:08.660Z,55.67
2023-04-08T09:00:39.081Z,54.92
2023-04-08T09:03:27.327Z,57.33
2023-04-08T09:06:04.045Z,43.95
2023-04-08T09:08:37.763Z,53.25
2023-04-08T09:11:17.939Z,45.22
2023-04-08T09:13:45.951Z,48.72
2023-04-08T09:16:15.059Z,46.60
2023-04-08T09:18:44.456Z,63.88
2023-04-08T09:21:12.135Z,47.80
2023-04-08T09:23:46.318Z,54.03
2023-04-08T09:26:19.388Z,47.97
2023-04-08T09:28:59.615Z,59.53
2023-04-08T09:31:29.811Z,51.03
2023-04-08T09:34:02.378Z,54.20
2023-04-08T09:36:28.824Z,46.42
2023-04-08T09:38:56.103Z,43.10
2023-04-08T09:41:26.484Z,47.47
2023-04-08T09:43:58.818Z,40.22
2023-04-08T09:46:49.469Z,41.03
2023-04-08T09:49:15.817Z,33.50
2023-04-08T09:51:50.455Z,33.08
2023-04-08T09:54:23.000Z,57.92
2023-04-08T09:57:05.428Z,50.05
2023-04-08T09:59:36.765Z,40.60
2023-04-08T10:02:08.352Z,37.70
2023-04-08T10:04:39.375Z,32.72
2023-04-08T10:07:08.773Z,38.33
2023-04-08T10:09:36.066Z,23.88
2023-04-08T10:12:04.213Z,26.40
2023-04-08T10:14:31.407Z,23.70
2023-04-08T10:17:36.852Z,27.40
2023-04-08T10:20:03.551Z,30.55
2023-04-08T10:22:29.878Z,24.70
2023-04-08T10:25:30.302Z,40.00
2023-04-08T10:27:56.988Z,30.75
2023-04-08T10:30:26.544Z,30.13
2023-04-08T10:32:56.953Z,39.47
2023-04-08T10:35:30.312Z,27.10
2023-04-08T10:37:58.591Z,26.30
2023-04-08T10:40:25.480Z,31.98
2023-04-08T10:42:56.488Z,22.95
2023-04-08T10:45:23.712Z,25.88
2023-04-08T10:47:50.526Z,28.40
2023-04-08T10:50:18.887Z,31.15
2023-04-08T10:52:48.388Z,32.55
2023-04-08T10:55:15.219Z,34.90
2023-04-08T10:57:41.706Z,23.13
2023-04-08T11:00:19.124Z,28.05
2023-04-08T11:02:45.939Z,28.35
2023-04-08T11:05:12.460Z,28.73
2023-04-08T11:07:41.862Z,27.77
2023-04-08T11:10:09.391Z,25.52
2023-04-08T11:12:37.206Z,32.03
2023-04-08T11:15:04.859Z,29.40
2023-04-08T11:17:34.240Z,23.38
2023-04-08T11:20:06.006Z,25.92
2023-04-08T11:22:36.239Z,33.65
2023-04-08T11:25:02.915Z,30.77
2023-04-08T11:27:29.823Z,29.05
2023-04-08T11:29:56.977Z,32.63
2023-04-08T11:32:23.863Z,29.73
2023-04-08T11:34:50.303Z,24.42
2023-04-08T11:37:17.386Z,29.90
2023-04-08T11:39:44.298Z,31.38
2023-04-08T11:42:27.291Z,31.77
2023-04-08T11:47:20.357Z,19.40
2023-04-08T11:49:47.520Z,32.30
2023-04-08T11:52:14.592Z,26.70
2023-04-08T11:54:42.668Z,27.48
2023-04-08T11:57:12.548Z,32.17
2023-04-08T11:59:38.960Z,27.38
2023-04-08T12:02:06.067Z,28.58
2023-04-08T12:04:34.133Z,26.00
2023-04-08T12:07:00.786Z,22.27
2023-04-08T12:09:27.414Z,31.42
2023-04-08T12:11:53.869Z,29.73
2023-04-08T12:14:21.975Z,28.48
2023-04-08T12:16:48.460Z,27.40
2023-04-08T12:19:14.869Z,26.70
2023-04-08T12:21:41.410Z,28.00
2023-04-08T12:24:07.786Z,25.02
2023-04-08T12:26:34.238Z,31.95
2023-04-08T12:29:00.752Z,32.60
2023-04-08T12:31:28.374Z,29.27
2023-04-08T12:33:54.832Z,26.48
2023-04-08T12:36:24.148Z,36.15
2023-04-08T12:38:50.807Z,24.08
2023-04-08T12:41:17.426Z,27.23
2023-04-08T12:43:43.875Z,24.52
2023-04-08T12:46:10.274Z,28.17
2023-04-08T12:48:36.875Z,39.28
2023-04-08T12:51:03.344Z,36.90
2023-04-08T12:53:29.786Z,39.08
2023-04-08T12:55:57.437Z,37.72
2023-04-08T12:58:25.317Z,31.80
2023-04-08T13:00:51.900Z,28.20
2023-04-08T13:03:18.434Z,33.25
2023-04-08T13:05:44.946Z,35.95
2023-04-08T13:08:14.558Z,39.25
2023-04-08T13:10:42.089Z,30.42
2023-04-08T13:13:08.518Z,40.15
2023-04-08T13:15:34.900Z,38.25
2023-04-08T13:18:01.428Z,37.28
2023-04-08T13:20:28.152Z,40.45
2023-04-08T13:22:54.619Z,35.97
2023-04-08T13:25:21.493Z,29.58
2023-04-08T13:27:48.141Z,27.95
2023-04-08T13:30:14.664Z,30.15
2023-04-08T13:32:41.187Z,27.85
2023-04-08T13:35:08.032Z,33.25
2023-04-08T13:37:34.557Z,28.58
2023-04-08T13:40:01.442Z,26.80
2023-04-08T13:42:27.929Z,27.98
2023-04-08T13:44:54.359Z,27.33
2023-04-08T13:47:20.788Z,29.10
2023-04-08T13:49:47.216Z,23.58
2023-04-08T13:52:13.686Z,29.05
2023-04-08T13:54:40.267Z,24.45
2023-04-08T13:57:06.766Z,26.98
2023-04-08T13:59:33.378Z,26.98
2023-04-08T14:01:59.870Z,27.67
2023-04-08T14:04:26.421Z,24.67
2023-04-08T14:06:53.248Z,17.08
2023-04-08T14:09:20.881Z,24.17
2023-04-08T14:11:47.390Z,21.40
2023-04-08T14:14:14.031Z,21.52
2023-04-08T14:16:41.707Z,23.35
2023-04-08T14:19:08.838Z,21.88
2023-04-08T14:21:35.502Z,24.25
2023-04-08T14:24:02.854Z,20.42
2023-04-08T14:26:29.595Z,19.20
2023-04-08T14:28:55.996Z,18.08
2023-04-08T14:31:22.433Z,17.35
2023-04-08T14:33:48.894Z,16.23
2023-04-08T14:36:15.408Z,14.05
2023-04-08T14:38:41.852Z,15.52
2023-04-08T14:41:08.285Z,20.85
2023-04-08T14:43:34.732Z,14.88
2023-04-08T14:46:01.361Z,14.07
2023-04-08T14:48:30.487Z,12.75
2023-04-08T14:50:57.459Z,14.05
2023-04-08T14:53:24.056Z,18.02
2023-04-08T14:55:51.028Z,14.40
2023-04-08T14:58:17.812Z,13.20
2023-04-08T15:00:47.657Z,17.30
2023-04-08T15:03:15.369Z,15.57
2023-04-08T15:05:42.804Z,16.75
2023-04-08T15:08:09.257Z,11.57
2023-04-08T15:10:35.701Z,15.35
2023-04-08T15:13:02.116Z,18.00
2023-04-08T15:15:28.801Z,16.80
2023-04-08T15:17:55.407Z,15.10
2023-04-08T15:20:22.181Z,14.35
2023-04-08T15:22:48.686Z,16.80
2023-04-08T15:25:15.528Z,12.30
2023-04-08T15:27:42.598Z,16.95
2023-04-08T15:30:11.259Z,11.73
2023-04-08T15:32:38.780Z,11.57
2023-04-08T15:35:06.625Z,13.73
2023-04-08T15:37:33.094Z,12.45
2023-04-08T15:39:59.620Z,16.65
2023-04-08T15:42:26.087Z,21.20
2023-04-08T15:44:52.512Z,15.43
2023-04-08T15:47:18.983Z,13.85
2023-04-08T15:49:45.426Z,17.05
2023-04-08T15:52:11.832Z,16.70
2023-04-08T15:54:38.233Z,18.75
2023-04-08T15:57:04.647Z,12.63
2023-04-08T15:59:32.198Z,16.60
2023-04-08T16:01:58.794Z,14.15
2023-04-08T16:04:25.433Z,14.98
2023-04-08T16:06:51.903Z,14.90
2023-04-08T16:09:22.589Z,14.55
2023-04-08T16:11:48.993Z,18.75
2023-04-08T16:14:15.763Z,13.57
2023-04-08T16:16:43.032Z,17.70
2023-04-08T16:19:09.593Z,17.88
2023-04-08T16:21:36.103Z,19.00
2023-04-08T16:24:02.571Z,18.17
2023-04-08T16:26:29.044Z,23.08
2023-04-08T16:28:55.436Z,19.20
2023-04-08T16:31:22.274Z,17.75
2023-04-08T16:33:48.812Z,23.95
2023-04-08T16:36:15.300Z,21.50
2023-04-08T16:38:41.770Z,20.75
2023-04-08T16:41:10.040Z,16.80
2023-04-08T16:43:37.764Z,20.00
2023-04-08T16:46:16.735Z,18.38
2023-04-08T16:48:44.253Z,18.23
2023-04-08T16:51:11.466Z,15.30
2023-04-08T16:53:38.271Z,15.20
2023-04-08T16:56:05.271Z,16.08
2023-04-08T16:58:31.815Z,17.02
2023-04-08T17:00:58.293Z,21.25
2023-04-08T17:03:24.883Z,19.92
2023-04-08T17:05:51.783Z,20.05
2023-04-08T17:08:18.871Z,21.00
2023-04-08T17:10:45.379Z,19.80
2023-04-08T17:13:14.242Z,15.48
2023-04-08T17:15:41.242Z,20.13
2023-04-08T17:18:07.666Z,19.75
2023-04-08T17:20:34.119Z,18.77
2023-04-08T17:23:00.551Z,22.83
2023-04-08T17:25:51.144Z,17.98
2023-04-08T17:28:18.850Z,18.88
2023-04-08T17:30:45.272Z,19.38
2023-04-08T17:33:11.720Z,17.67
2023-04-08T17:35:38.332Z,17.70
2023-04-08T17:38:05.457Z,18.40
2023-04-08T17:40:31.872Z,18.45
2023-04-08T17:42:58.338Z,19.13
2023-04-08T17:45:24.875Z,18.58
2023-04-08T17:47:52.164Z,15.25
2023-04-08T17:50:18.746Z,19.98
2023-04-08T17:52:48.577Z,18.05
2023-04-08T17:55:15.375Z,16.35
2023-04-08T17:57:42.109Z,18.27
2023-04-08T18:00:09.203Z,18.48
2023-04-08T18:02:36.878Z,16.83
2023-04-08T18:05:04.166Z,15.15
2023-04-08T18:07:30.822Z,16.60
2023-04-08T18:09:57.339Z,16.77
2023-04-08T18:12:23.816Z,18.65
2023-04-08T18:14:50.435Z,23.65
2023-04-08T18:17:16.848Z,22.52
2023-04-08T18:19:43.270Z,25.77
2023-04-08T18:22:09.677Z,22.63
2023-04-08T18:24:37.193Z,25.50
2023-04-08T18:27:05.075Z,29.20
2023-04-08T18:29:31.728Z,25.52
2023-04-08T18:31:58.144Z,25.63
2023-04-08T18:34:25.299Z,31.00
2023-04-08T18:36:52.061Z,27.00
2023-04-08T18:39:19.096Z,37.30
2023-04-08T18:41:45.792Z,36.88
2023-04-08T18:44:12.801Z,39.92
2023-04-08T18:46:39.325Z,32.15
2023-04-08T18:49:06.080Z,45.97
2023-04-08T18:51:33.438Z,45.67
2023-04-08T18:53:59.885Z,41.28
2023-04-08T18:56:26.587Z,32.97
2023-04-08T18:58:54.741Z,32.72
2023-04-08T19:01:21.648Z,48.20
2023-04-08T19:03:48.206Z,30.65
2023-04-08T19:06:17.284Z,36.92
2023-04-08T19:08:43.702Z,38.67
2023-04-08T19:11:10.312Z,31.33
2023-04-08T19:13:37.009Z,37.70
2023-04-08T19:16:03.640Z,39.35
2023-04-08T19:18:30.323Z,26.98
2023-04-08T19:20:56.804Z,25.95
2023-04-08T19:23:23.198Z,23.60
2023-04-08T19:25:49.618Z,17.63
2023-04-08T19:28:16.221Z,19.65
2023-04-08T19:30:42.625Z,17.08
2023-04-08T19:33:09.120Z,20.45
2023-04-08T19:35:35.772Z,20.38
2023-04-08T19:38:02.850Z,23.08
2023-04-08T19:40:29.498Z,23.30
2023-04-08T19:42:55.954Z,25.85
2023-04-08T19:45:22.369Z,31.42
2023-04-08T19:47:49.152Z,31.92
2023-04-08T19:50:15.633Z,30.00
2023-04-08T19:52:42.033Z,25.58
2023-04-08T19:55:10.297Z,32.47
2023-04-08T19:57:37.096Z,24.10
2023-04-08T20:00:04.460Z,20.48
2023-04-08T20:02:31.063Z,19.88
2023-04-08T20:04:57.733Z,27.92
2023-04-08T20:07:24.203Z,20.13
2023-04-08T20:09:50.900Z,18.83
2023-04-08T20:12:17.398Z,16.67
2023-04-08T20:14:45.030Z,18.20
2023-04-08T20:17:12.393Z,18.48
2023-04-08T20:19:39.031Z,17.73
2023-04-08T20:22:05.636Z,18.65
2023-04-08T20:24:32.028Z,19.45
2023-04-08T20:26:59.946Z,21.73
2023-04-08T20:29:26.679Z,20.30
2023-04-08T20:31:53.348Z,21.60
2023-04-08T20:34:19.835Z,18.80
2023-04-08T20:36:46.544Z,18.38
2023-04-08T20:39:13.057Z,16.45
2023-04-08T20:41:39.674Z,16.98
2023-04-08T20:44:06.995Z,19.88
2023-04-08T20:46:33.613Z,19.83
2023-04-08T20:49:00.062Z,19.15
2023-04-08T20:51:27.283Z,18.70
2023-04-08T20:53:53.794Z,16.90
2023-04-08T20:56:21.064Z,18.98
2023-04-08T20:58:47.535Z,19.98
2023-04-08T21:01:13.988Z,19.63
2023-04-08T21:03:40.508Z,24.38
2023-04-08T21:06:07.005Z,25.95
2023-04-08T21:08:33.412Z,27.83
2023-04-08T21:10:59.898Z,33.25
2023-04-08T21:13:26.300Z,31.80
2023-04-08T21:15:52.716Z,32.13
2023-04-08T21:18:19.114Z,30.30
2023-04-08T21:20:45.606Z,31.38
2023-04-08T21:23:12.920Z,32.15
2023-04-08T21:25:39.571Z,30.17
2023-04-08T21:28:05.980Z,30.33
2023-04-08T21:30:32.402Z,32.92
2023-04-08T21:32:58.863Z,29.40
2023-04-08T21:35:25.401Z,28.67
2023-04-08T21:37:51.836Z,30.85
2023-04-08T21:40:18.393Z,26.55
2023-04-08T21:42:45.555Z,32.10
2023-04-08T21:45:12.210Z,42.17
2023-04-08T21:47:38.705Z,36.60
2023-04-08T21:50:06.122Z,35.92
2023-04-08T21:52:32.750Z,36.85
2023-04-08T21:54:59.290Z,29.70
2023-04-08T21:57:25.751Z,37.97
2023-04-08T21:59:52.212Z,33.30
2023-04-08T22:02:18.745Z,42.50
2023-04-08T22:04:45.253Z,35.15
2023-04-08T22:07:12.057Z,38.58
2023-04-08T22:09:38.594Z,39.90
2023-04-08T22:12:05.336Z,47.75
2023-04-08T22:14:31.809Z,44.70
2023-04-08T22:16:58.336Z,43.85
2023-04-08T22:19:24.834Z,35.35
2023-04-08T22:21:51.442Z,36.38
2023-04-08T22:24:18.765Z,39.83
2023-04-08T22:26:45.225Z,38.20
2023-04-08T22:29:11.637Z,41.50
2023-04-08T22:31:38.101Z,42.85
2023-04-08T22:34:04.624Z,48.67
2023-04-08T22:36:31.385Z,50.53
2023-04-08T22:38:57.823Z,43.17
2023-04-08T22:41:24.236Z,37.30
2023-04-08T22:43:51.214Z,52.65
2023-04-08T22:46:18.599Z,41.22
2023-04-08T22:48:45.326Z,33.70
2023-04-08T22:51:12.587Z,38.83
2023-04-08T22:53:39.037Z,42.95
2023-04-08T22:56:05.865Z,44.50
2023-04-08T22:58:32.365Z,34.20
2023-04-08T23:00:58.838Z,43.13
2023-04-08T23:03:25.333Z,40.28
2023-04-08T23:05:51.859Z,42.65
2023-04-08T23:08:18.296Z,43.20
2023-04-08T23:10:44.747Z,42.35
2023-04-08T23:13:11.231Z,44.38
2023-04-08T23:15:37.658Z,49.47
2023-04-08T23:18:04.193Z,44.38
2023-04-08T23:20:30.614Z,47.10
2023-04-08T23:22:57.029Z,48.55
2023-04-08T23:25:23.460Z,46.92
2023-04-08T23:27:49.855Z,45.50
2023-04-08T23:30:16.278Z,44.67
2023-04-08T23:32:42.747Z,50.33
2023-04-08T23:35:09.587Z,44.45
2023-04-08T23:37:36.034Z,47.75
2023-04-08T23:40:02.521Z,40.88
2023-04-08T23:42:28.963Z,45.20
2023-04-08T23:44:55.606Z,46.10
2023-04-08T23:47:22.228Z,44.88
2023-04-08T23:49:48.762Z,50.17
2023-04-08T23:52:15.639Z,36.78
2023-04-08T23:54:42.051Z,31.92
2023-04-08T23:57:08.574Z,46.05
2023-04-08T23:59:34.963Z,29.80
